Time;durP1;ratioP1;P1;durP2;ratioP2;P2;SDS_P1;SDS_P2;PMS_P1;PMS_P2;Temp;Humidity;BMP_temperature;BMP_pressure;BME280_temperature;BME280_humidity;BME280_pressure;Samples;Min_cycle;Max_cycle;Signal;HPM_P1;HPM_P2
2022/04/28 00:00:00;;;;;;;;;;;;;;;13.30;65.45;95111.00;4977117;28;1042;-50
2022/04/28 00:02:28;;;;;;;;;;;;;;;13.34;65.33;95119.53;4976919;28;985;-51
2022/04/28 00:04:55;;;;;;;;;;;;;;;13.31;64.67;95120.72;4977085;28;1028;-51
2022/04/28 00:07:22;;;;;;;;;;;;;;;13.41;65.01;95115.97;4976820;28;1084;-50
2022/04/28 00:09:48;;;;;;;;;;;;;;;13.22;65.55;95114.56;4976590;28;1989;-50
2022/04/28 00:12:14;;;;;;;;;;;;;;;13.01;66.39;95117.00;4976803;28;1050;-50
2022/04/28 00:14:43;;;;;;;;;;;;;;;13.15;65.76;95126.19;4976760;28;965;-50
2022/04/28 00:17:09;;;;;;;;;;;;;;;13.35;65.54;95124.72;4976525;28;1965;-50
2022/04/28 00:19:36;;;;;;;;;;;;;;;13.38;65.74;95121.69;4976719;28;1026;-50
2022/04/28 00:22:02;;;;;;;;;;;;;;;13.21;66.27;95120.91;4976756;28;1050;-50
2022/04/28 00:24:28;;;;;;;;;;;;;;;13.00;66.79;95121.56;4976414;28;1849;-50
2022/04/28 00:26:54;;;;;;;;;;;;;;;13.02;66.90;95127.59;4960735;28;1247;-50
2022/04/28 00:29:21;;;;;;;;;;;;;;;12.96;67.23;95125.63;4957098;28;1979;-50
2022/04/28 00:31:47;;;;;;;;;;;;;;;12.82;67.52;95123.66;4956935;28;1045;-50
2022/04/28 00:34:14;;;;;;;;;;;;;;;12.93;67.31;95127.81;4957350;28;957;-50
2022/04/28 00:36:40;;;;;;;;;;;;;;;13.06;67.13;95131.56;4957033;28;999;-50
2022/04/28 00:39:06;;;;;;;;;;;;;;;13.04;67.37;95136.28;4957174;28;1100;-51
2022/04/28 00:41:32;;;;;;;;;;;;;;;12.88;67.68;95139.91;4956768;28;1867;-51
2022/04/28 00:43:59;;;;;;;;;;;;;;;12.86;67.87;95141.06;4956992;28;1054;-50
2022/04/28 00:46:25;;;;;;;;;;;;;;;13.02;67.41;95132.94;4956552;28;928;-50
2022/04/28 00:51:37;;;;;;;;;;;;;;;13.47;65.94;95142.09;4956700;29;1050;-50
2022/04/28 00:54:04;;;;;;;;;;;;;;;13.49;66.33;95147.28;4956793;28;1030;-51
2022/04/28 00:56:30;;;;;;;;;;;;;;;13.20;67.09;95146.13;4956355;28;968;-50
2022/04/28 00:58:58;;;;;;;;;;;;;;;13.19;67.05;95151.66;4955644;29;966;-51
2022/04/28 01:01:24;;;;;;;;;;;;;;;13.29;66.67;95154.94;4956613;28;1023;-51
2022/04/28 01:03:50;;;;;;;;;;;;;;;13.21;67.41;95152.31;4956585;28;1854;-50
2022/04/28 01:06:16;;;;;;;;;;;;;;;13.06;68.21;95150.38;4956261;29;1065;-50
2022/04/28 01:08:42;;;;;;;;;;;;;;;13.12;67.69;95148.00;4956473;28;1911;-50
2022/04/28 01:11:08;;;;;;;;;;;;;;;13.06;67.91;95150.38;4956210;28;1073;-50
2022/04/28 01:13:35;;;;;;;;;;;;;;;13.07;67.53;95148.50;4956425;29;1002;-50
2022/04/28 01:16:01;;;;;;;;;;;;;;;13.11;67.77;95149.84;4956381;29;1135;-50
2022/04/28 01:18:27;;;;;;;;;;;;;;;13.01;68.27;95146.53;4955910;29;1093;-50
2022/04/28 01:20:54;;;;;;;;;;;;;;;13.00;68.39;95147.56;4956048;28;1077;-50
2022/04/28 01:23:20;;;;;;;;;;;;;;;13.09;67.71;95154.56;4956105;28;1038;-50
2022/04/28 01:25:46;;;;;;;;;;;;;;;13.28;67.31;95148.75;4962429;28;1203;-50
2022/04/28 01:28:13;;;;;;;;;;;;;;;13.31;67.32;95147.56;4973988;28;1914;-50
2022/04/28 01:30:39;;;;;;;;;;;;;;;13.42;66.59;95157.91;4975511;28;989;-50
2022/04/28 01:33:05;;;;;;;;;;;;;;;13.40;67.14;95159.09;4975415;28;997;-50
2022/04/28 01:35:31;;;;;;;;;;;;;;;13.32;67.82;95162.69;4975374;28;1013;-51
2022/04/28 01:37:57;;;;;;;;;;;;;;;13.32;67.64;95165.38;4975099;28;972;-50
2022/04/28 01:40:24;;;;;;;;;;;;;;;13.28;68.19;95164.84;4975261;28;926;-50
2022/04/28 01:42:50;;;;;;;;;;;;;;;13.24;68.25;95163.53;4974938;28;1060;-50
2022/04/28 01:45:17;;;;;;;;;;;;;;;13.32;67.97;95165.38;4975085;28;1080;-50
2022/04/28 01:47:43;;;;;;;;;;;;;;;13.42;67.63;95170.50;4974684;28;1037;-51
2022/04/28 01:50:11;;;;;;;;;;;;;;;13.46;67.29;95174.50;4975064;28;1997;-51
2022/04/28 01:55:23;;;;;;;;;;;;;;;13.47;67.27;95174.31;4974788;28;1033;-50
2022/04/28 01:57:49;;;;;;;;;;;;;;;13.30;68.00;95172.75;4975014;28;1058;-50
2022/04/28 02:00:15;;;;;;;;;;;;;;;13.24;67.64;95170.72;4975137;28;985;-50
2022/04/28 02:02:42;;;;;;;;;;;;;;;13.34;67.50;95176.75;4974616;28;1038;-51
2022/04/28 02:05:09;;;;;;;;;;;;;;;13.19;68.15;95179.31;4974965;28;1034;-51
2022/04/28 02:07:35;;;;;;;;;;;;;;;13.05;68.53;95177.38;4973096;28;971;-50
2022/04/28 02:10:02;;;;;;;;;;;;;;;13.17;67.93;95177.84;4973391;28;1910;-50
2022/04/28 02:12:28;;;;;;;;;;;;;;;13.29;66.98;95171.88;4974416;28;1119;-50
2022/04/28 02:14:55;;;;;;;;;;;;;;;13.41;66.70;95169.66;4974885;28;1017;-50
2022/04/28 02:17:22;;;;;;;;;;;;;;;13.62;65.92;95169.00;4974350;28;952;-50
2022/04/28 02:19:49;;;;;;;;;;;;;;;13.98;65.09;95167.53;4974767;28;961;-51
2022/04/28 02:22:15;;;;;;;;;;;;;;;14.30;64.10;95173.63;4974409;28;1001;-51
2022/04/28 02:24:41;;;;;;;;;;;;;;;14.51;63.28;95176.41;4974450;28;955;-51
2022/04/28 02:27:08;;;;;;;;;;;;;;;14.68;63.29;95173.59;4956860;28;1273;-49
2022/04/28 02:29:34;;;;;;;;;;;;;;;14.78;62.75;95172.28;4955022;28;1989;-49
2022/04/28 02:32:01;;;;;;;;;;;;;;;14.82;62.91;95175.44;4955334;28;1025;-49
2022/04/28 02:34:27;;;;;;;;;;;;;;;14.86;62.97;95171.34;4955129;28;1024;-50
2022/04/28 02:36:53;;;;;;;;;;;;;;;14.94;63.38;95175.81;4954943;28;1034;-50
2022/04/28 02:39:19;;;;;;;;;;;;;;;14.83;63.34;95169.88;4955236;28;1028;-50
2022/04/28 02:41:46;;;;;;;;;;;;;;;14.87;62.78;95174.88;4955109;28;1037;-51
2022/04/28 02:44:12;;;;;;;;;;;;;;;14.94;63.01;95173.94;4955304;28;992;-50
2022/04/28 02:46:48;;;;;;;;;;;;;;;15.00;62.82;95177.72;4955118;28;1191;-50
2022/04/28 02:49:15;;;;;;;;;;;;;;;14.90;63.38;95179.91;4954694;28;1903;-51
2022/04/28 02:51:41;;;;;;;;;;;;;;;14.49;63.05;95183.84;4954845;28;1120;-50
2022/04/28 02:54:07;;;;;;;;;;;;;;;14.02;64.22;95183.13;4954811;28;1268;-50
2022/04/28 02:56:34;;;;;;;;;;;;;;;13.65;64.92;95181.25;4954905;28;1029;-50
2022/04/28 02:59:00;;;;;;;;;;;;;;;13.43;65.44;95189.13;4954888;28;1039;-50
2022/04/28 03:01:27;;;;;;;;;;;;;;;13.48;65.66;95191.25;4955149;28;1000;-50
2022/04/28 03:03:54;;;;;;;;;;;;;;;13.38;66.21;95185.31;4954835;28;1039;-50
2022/04/28 03:11:50;;;;;;;;;;;;;;;13.24;66.56;95190.38;4954970;29;993;-50
2022/04/28 03:14:16;;;;;;;;;;;;;;;13.41;66.63;95195.66;4954608;28;1034;-50
2022/04/28 03:16:42;;;;;;;;;;;;;;;13.63;66.09;95202.91;4954843;29;926;-50
2022/04/28 03:19:09;;;;;;;;;;;;;;;13.79;65.70;95199.28;4954435;28;974;-50
2022/04/28 03:21:35;;;;;;;;;;;;;;;13.96;65.53;95197.31;4958113;28;1005;-50
2022/04/28 03:24:01;;;;;;;;;;;;;;;14.18;65.22;95200.97;4958373;28;1016;-50
2022/04/28 03:26:28;;;;;;;;;;;;;;;14.23;65.45;95212.00;4969038;28;1232;-50
2022/04/28 03:28:55;;;;;;;;;;;;;;;14.27;65.24;95208.97;4977505;28;1998;-50
2022/04/28 03:31:21;;;;;;;;;;;;;;;14.33;64.92;95205.53;4977501;28;955;-50
2022/04/28 03:33:48;;;;;;;;;;;;;;;14.38;64.85;95208.50;4977202;28;1021;-51
2022/04/28 03:38:58;;;;;;;;;;;;;;;14.13;65.23;95224.84;4977302;28;971;-50
2022/04/28 03:41:24;;;;;;;;;;;;;;;13.85;65.58;95225.44;4977322;28;1009;-50
2022/04/28 03:43:51;;;;;;;;;;;;;;;13.60;65.75;95221.22;4977451;28;1034;-50
2022/04/28 03:46:18;;;;;;;;;;;;;;;13.30;66.41;95229.16;4977098;28;1025;-50
2022/04/28 03:48:45;;;;;;;;;;;;;;;13.13;67.10;95228.38;4975635;28;1914;-50
2022/04/28 03:51:11;;;;;;;;;;;;;;;13.19;66.95;95241.06;4992344;28;959;-51
2022/04/28 03:53:38;;;;;;;;;;;;;;;13.27;66.56;95237.50;4977066;28;1034;-50
2022/04/28 03:56:04;;;;;;;;;;;;;;;13.32;66.45;95239.69;4977154;28;1025;-50
2022/04/28 03:58:30;;;;;;;;;;;;;;;13.32;66.19;95243.22;4991865;28;1022;-50
2022/04/28 04:00:56;;;;;;;;;;;;;;;13.46;66.29;95247.84;4977005;28;1025;-50
2022/04/28 04:03:22;;;;;;;;;;;;;;;13.56;65.50;95252.97;4977022;28;1034;-50
2022/04/28 04:05:49;;;;;;;;;;;;;;;13.64;65.65;95252.13;4977002;28;1053;-50
2022/04/28 04:08:15;;;;;;;;;;;;;;;13.79;65.01;95258.41;4977057;28;958;-50
2022/04/28 04:10:41;;;;;;;;;;;;;;;13.83;65.52;95265.09;4976941;28;1036;-50
2022/04/28 04:13:08;;;;;;;;;;;;;;;13.75;66.68;95264.28;4976808;28;1064;-50
2022/04/28 04:15:34;;;;;;;;;;;;;;;13.71;66.50;95273.72;4976509;28;1091;-51
2022/04/28 04:18:00;;;;;;;;;;;;;;;13.74;65.43;95262.63;4976756;28;996;-50
2022/04/28 04:20:27;;;;;;;;;;;;;;;13.96;65.36;95260.97;4976314;28;930;-50
2022/04/28 04:22:53;;;;;;;;;;;;;;;13.98;65.14;95265.16;4976926;28;967;-50
2022/04/28 04:25:20;;;;;;;;;;;;;;;14.03;65.57;95267.28;4973337;28;1932;-50
2022/04/28 04:27:47;;;;;;;;;;;;;;;14.18;64.38;95272.72;4957172;28;1282;-50
2022/04/28 04:32:59;;;;;;;;;;;;;;;14.64;63.49;95276.22;4957215;29;1081;-50
2022/04/28 04:35:25;;;;;;;;;;;;;;;14.64;65.01;95284.31;4956950;29;1141;-50
2022/04/28 04:37:52;;;;;;;;;;;;;;;14.60;65.55;95282.97;4957039;28;1026;-50
2022/04/28 04:40:19;;;;;;;;;;;;;;;14.60;64.94;95276.75;4956738;28;1002;-50
2022/04/28 04:42:45;;;;;;;;;;;;;;;14.63;65.22;95282.63;4956916;28;961;-50
2022/04/28 04:45:11;;;;;;;;;;;;;;;14.71;65.26;95279.00;4956764;28;1026;-50
2022/04/28 04:47:38;;;;;;;;;;;;;;;14.84;64.98;95278.38;4956612;28;1018;-50
2022/04/28 04:50:05;;;;;;;;;;;;;;;15.06;64.41;95283.84;4956529;28;1930;-50
2022/04/28 04:52:31;;;;;;;;;;;;;;;15.21;64.37;95282.00;4956705;28;1045;-50
2022/04/28 04:54:58;;;;;;;;;;;;;;;15.35;64.18;95283.03;4956585;28;2054;-50
2022/04/28 04:57:24;;;;;;;;;;;;;;;15.41;65.00;95295.72;4956599;28;953;-50
2022/04/28 04:59:50;;;;;;;;;;;;;;;15.35;64.45;95288.41;4956683;28;1123;-50
2022/04/28 05:02:16;;;;;;;;;;;;;;;15.50;64.36;95293.75;4956581;28;1961;-50
2022/04/28 05:04:42;;;;;;;;;;;;;;;15.69;63.61;95292.31;4956368;29;1092;-50
2022/04/28 05:07:09;;;;;;;;;;;;;;;15.82;63.68;95300.59;4955363;29;1030;-50
2022/04/28 05:09:37;;;;;;;;;;;;;;;15.96;63.18;95297.03;4956142;28;1910;-50
2022/04/28 05:12:04;;;;;;;;;;;;;;;16.24;62.54;95295.44;4956314;28;998;-50
2022/04/28 05:14:30;;;;;;;;;;;;;;;16.65;62.17;95311.78;4956323;28;1039;-50
2022/04/28 05:16:57;;;;;;;;;;;;;;;17.14;59.92;95299.31;4956383;29;998;-50
2022/04/28 05:19:24;;;;;;;;;;;;;;;16.83;61.42;95311.38;4955680;28;1033;-50
2022/04/28 05:21:50;;;;;;;;;;;;;;;17.40;59.91;95311.31;4956521;28;1069;-50
2022/04/28 05:24:17;;;;;;;;;;;;;;;18.80;56.13;95312.59;4954781;29;1115;-50
2022/04/28 05:26:43;;;;;;;;;;;;;;;19.98;52.76;95314.44;4968708;28;1206;-50
2022/04/28 05:29:09;;;;;;;;;;;;;;;20.78;50.88;95319.41;4975610;28;1911;-51
2022/04/28 05:31:36;;;;;;;;;;;;;;;21.17;50.00;95317.44;4975165;28;1017;-50
2022/04/28 05:34:02;;;;;;;;;;;;;;;21.11;50.37;95325.63;4975511;28;1205;-49
2022/04/28 05:36:29;;;;;;;;;;;;;;;20.66;50.78;95316.59;4975344;28;1008;-50
2022/04/28 05:38:58;;;;;;;;;;;;;;;20.44;52.06;95312.53;4975264;28;1031;-50
2022/04/28 05:41:27;;;;;;;;;;;;;;;20.42;52.54;95323.59;4975088;28;969;-50
2022/04/28 05:46:43;;;;;;;;;;;;;;;19.41;53.77;95324.22;4965054;28;1168;-50
2022/04/28 05:49:09;;;;;;;;;;;;;;;18.92;55.05;95327.16;4975054;28;1997;-50
2022/04/28 05:51:35;;;;;;;;;;;;;;;18.70;55.52;95329.25;4974724;28;1024;-50
2022/04/28 05:54:02;;;;;;;;;;;;;;;18.98;55.33;95330.91;4975260;28;1004;-50
2022/04/28 05:56:28;;;;;;;;;;;;;;;19.59;54.02;95334.38;4974707;28;1100;-50
2022/04/28 05:58:55;;;;;;;;;;;;;;;19.74;53.30;95331.44;4975120;28;1089;-50
2022/04/28 06:01:22;;;;;;;;;;;;;;;19.59;53.19;95331.66;4974644;28;1025;-50
2022/04/28 06:03:48;;;;;;;;;;;;;;;19.41;52.85;95329.63;4974784;28;970;-50
2022/04/28 06:06:14;;;;;;;;;;;;;;;19.16;53.90;95329.44;4974545;28;1100;-50
2022/04/28 06:08:40;;;;;;;;;;;;;;;18.98;54.71;95336.34;4974696;28;1902;-50
2022/04/28 06:11:06;;;;;;;;;;;;;;;18.90;54.98;95336.56;4973528;28;1062;-51
2022/04/28 06:13:32;;;;;;;;;;;;;;;18.94;54.73;95331.56;4974610;28;939;-50
2022/04/28 06:15:59;;;;;;;;;;;;;;;18.82;55.03;95337.59;4974645;28;959;-50
2022/04/28 06:18:25;;;;;;;;;;;;;;;18.58;55.59;95330.06;4974429;28;965;-50
2022/04/28 06:20:52;;;;;;;;;;;;;;;18.56;55.87;95332.13;4974723;28;1034;-50
2022/04/28 06:23:18;;;;;;;;;;;;;;;18.63;56.09;95338.38;4974645;28;1053;-50
2022/04/28 06:25:44;;;;;;;;;;;;;;;18.82;55.61;95329.47;4968108;28;1863;-50
2022/04/28 06:28:10;;;;;;;;;;;;;;;18.99;54.48;95338.03;4955183;28;1104;-50
2022/04/28 06:30:36;;;;;;;;;;;;;;;19.29;54.19;95338.41;4954984;29;1907;-50
2022/04/28 06:33:03;;;;;;;;;;;;;;;19.18;54.26;95344.47;4955325;28;1030;-50
2022/04/28 06:35:33;;;;;;;;;;;;;;;19.17;54.32;95341.97;4954750;28;1030;-50
2022/04/28 06:38:02;;;;;;;;;;;;;;;18.98;55.07;95340.94;4955465;28;1058;-50
2022/04/28 06:40:29;;;;;;;;;;;;;;;18.84;55.21;95340.94;4954979;28;1006;-50
2022/04/28 06:42:55;;;;;;;;;;;;;;;18.54;55.77;95338.56;4954992;28;1060;-50
2022/04/28 06:45:22;;;;;;;;;;;;;;;18.41;56.26;95338.56;4955335;28;1025;-50
2022/04/28 06:47:48;;;;;;;;;;;;;;;18.33;56.71;95346.88;4954822;28;1042;-50
2022/04/28 06:50:14;;;;;;;;;;;;;;;18.35;56.33;95347.50;4954802;29;1981;-50
2022/04/28 06:52:40;;;;;;;;;;;;;;;18.38;56.03;95343.53;4954720;29;989;-50
2022/04/28 06:55:08;;;;;;;;;;;;;;;18.50;55.60;95341.91;4958135;28;1008;-50
2022/04/28 06:57:34;;;;;;;;;;;;;;;18.62;55.85;95348.38;4958576;29;1046;-50
2022/04/28 07:00:02;;;;;;;;;;;;;;;18.76;55.30;95349.22;4958817;28;1105;-50
2022/04/28 07:02:30;;;;;;;;;;;;;;;19.76;54.23;95349.16;4958755;28;1066;-50
2022/04/28 07:04:56;;;;;;;;;;;;;;;20.47;52.60;95352.84;4958941;28;1101;-50
2022/04/28 07:07:22;;;;;;;;;;;;;;;20.29;51.29;95345.41;4958675;28;1117;-50
2022/04/28 07:09:48;;;;;;;;;;;;;;;19.79;52.31;95348.75;4958922;28;1989;-50
2022/04/28 07:12:15;;;;;;;;;;;;;;;19.26;54.48;95352.38;4957284;29;1026;-50
2022/04/28 07:14:42;;;;;;;;;;;;;;;18.97;55.03;95347.38;4958479;29;1018;-51
2022/04/28 07:17:08;;;;;;;;;;;;;;;18.96;54.80;95351.16;4958414;28;997;-50
2022/04/28 07:19:34;;;;;;;;;;;;;;;18.98;54.93;95358.03;4958094;28;1262;-50
2022/04/28 07:22:03;;;;;;;;;;;;;;;18.90;55.38;95345.50;4958484;28;1038;-51
2022/04/28 07:24:29;;;;;;;;;;;;;;;18.80;55.41;95350.53;4958327;28;1107;-50
2022/04/28 07:26:55;;;;;;;;;;;;;;;18.96;55.78;95346.56;4973637;28;1249;-50
2022/04/28 07:29:22;;;;;;;;;;;;;;;19.31;54.32;95340.88;4977573;28;1895;-50
2022/04/28 07:31:48;;;;;;;;;;;;;;;19.67;52.94;95344.97;4977472;28;1045;-50
2022/04/28 07:34:14;;;;;;;;;;;;;;;19.88;51.68;95357.47;4977302;28;1033;-51
2022/04/28 07:36:40;;;;;;;;;;;;;;;19.93;52.69;95356.84;4977544;28;1053;-51
2022/04/28 07:39:06;;;;;;;;;;;;;;;19.84;52.92;95353.53;4977708;28;966;-50
2022/04/28 07:41:33;;;;;;;;;;;;;;;19.69;52.83;95348.31;4977573;28;971;-50
2022/04/28 07:43:59;;;;;;;;;;;;;;;19.83;52.52;95354.59;4977690;28;1015;-50
2022/04/28 07:46:25;;;;;;;;;;;;;;;20.10;51.49;95360.72;4977088;28;1057;-50
2022/04/28 07:48:51;;;;;;;;;;;;;;;20.67;50.22;95355.44;4976761;28;1898;-50
2022/04/28 07:51:17;;;;;;;;;;;;;;;21.11;48.34;95356.34;4976275;28;1018;-51
2022/04/28 07:53:43;;;;;;;;;;;;;;;21.09;49.10;95361.19;4976979;28;1018;-51
2022/04/28 07:56:18;;;;;;;;;;;;;;;20.92;49.36;95358.19;4977249;28;1013;-51
2022/04/28 07:58:45;;;;;;;;;;;;;;;20.64;48.55;95355.88;4976916;28;1021;-51
2022/04/28 08:01:12;;;;;;;;;;;;;;;20.80;49.54;95357.25;4976955;28;1683;-50
2022/04/28 08:03:39;;;;;;;;;;;;;;;21.03;48.07;95362.06;4976992;28;1061;-51
2022/04/28 08:06:05;;;;;;;;;;;;;;;21.06;48.78;95357.03;4976146;28;1072;-50
2022/04/28 08:08:33;;;;;;;;;;;;;;;21.00;47.93;95362.50;4976607;28;1906;-51
2022/04/28 08:11:00;;;;;;;;;;;;;;;21.17;47.22;95360.06;4977185;28;1030;-51
2022/04/28 08:13:26;;;;;;;;;;;;;;;21.25;48.13;95363.34;4976593;28;1967;-51
2022/04/28 08:15:54;;;;;;;;;;;;;;;21.67;47.36;95361.97;4976636;28;1077;-51
2022/04/28 08:18:21;;;;;;;;;;;;;;;22.21;47.22;95352.97;4976166;28;1005;-51
2022/04/28 08:20:47;;;;;;;;;;;;;;;21.93;46.47;95363.53;4976711;28;1104;-51
2022/04/28 08:23:13;;;;;;;;;;;;;;;21.43;47.36;95359.84;4976506;28;1980;-51
2022/04/28 08:25:39;;;;;;;;;;;;;;;21.58;47.67;95355.97;4971096;28;1151;-51
2022/04/28 08:28:05;;;;;;;;;;;;;;;22.61;45.44;95357.03;4956909;29;1218;-51
2022/04/28 08:30:31;;;;;;;;;;;;;;;23.33;43.28;95356.97;4957296;28;1914;-51
2022/04/28 08:32:59;;;;;;;;;;;;;;;23.11;42.75;95366.81;4957191;28;1040;-51
2022/04/28 08:35:25;;;;;;;;;;;;;;;23.43;42.31;95361.03;4957450;28;973;-51
2022/04/28 08:37:51;;;;;;;;;;;;;;;23.16;43.37;95362.34;4956936;28;1064;-51
2022/04/28 08:40:18;;;;;;;;;;;;;;;23.14;43.71;95367.16;4957271;29;967;-51
2022/04/28 08:42:47;;;;;;;;;;;;;;;23.10;43.21;95365.97;4956899;28;1193;-51
2022/04/28 08:45:16;;;;;;;;;;;;;;;22.80;44.79;95372.28;4956831;28;1037;-51
2022/04/28 08:47:42;;;;;;;;;;;;;;;22.93;43.93;95363.06;4956722;28;1054;-51
2022/04/28 08:50:09;;;;;;;;;;;;;;;22.68;44.50;95370.59;4956992;28;1906;-51
2022/04/28 08:52:36;;;;;;;;;;;;;;;22.08;44.69;95379.50;4955720;29;1099;-50
2022/04/28 08:55:02;;;;;;;;;;;;;;;21.75;45.74;95383.44;4956872;28;966;-51
2022/04/28 08:57:30;;;;;;;;;;;;;;;21.45;46.43;95378.69;4956669;28;1075;-50
2022/04/28 08:59:57;;;;;;;;;;;;;;;21.31;46.04;95377.13;4956445;29;978;-50
2022/04/28 09:02:26;;;;;;;;;;;;;;;21.32;46.62;95373.34;4956658;28;1050;-51
2022/04/28 09:04:58;;;;;;;;;;;;;;;21.08;46.93;95367.69;4956719;28;985;-51
2022/04/28 09:07:35;;;;;;;;;;;;;;;21.12;47.22;95371.63;4956755;29;1032;-51
2022/04/28 09:10:21;;;;;;;;;;;;;;;21.03;47.42;95371.06;4956453;28;1993;-51
2022/04/28 09:12:54;;;;;;;;;;;;;;;20.75;47.69;95376.06;4956223;28;1199;-51
2022/04/28 09:15:21;;;;;;;;;;;;;;;20.47;47.89;95369.13;4956225;28;1041;-51
2022/04/28 09:17:48;;;;;;;;;;;;;;;20.43;48.19;95373.31;4956353;28;942;-50
2022/04/28 09:20:14;;;;;;;;;;;;;;;20.40;48.92;95371.88;4956460;28;997;-51
2022/04/28 09:22:43;;;;;;;;;;;;;;;20.40;49.01;95371.88;4956104;29;1187;-51
2022/04/28 09:25:10;;;;;;;;;;;;;;;20.40;48.89;95374.59;4957671;28;1210;-51
2022/04/28 09:27:36;;;;;;;;;;;;;;;20.60;47.69;95381.81;4975346;28;1092;-51
2022/04/28 09:30:02;;;;;;;;;;;;;;;20.74;47.62;95372.53;4974180;28;1981;-50
2022/04/28 09:32:28;;;;;;;;;;;;;;;21.06;47.43;95372.53;4975204;28;1029;-51
2022/04/28 09:34:55;;;;;;;;;;;;;;;21.24;46.56;95378.00;4975277;28;953;-51
2022/04/28 09:37:22;;;;;;;;;;;;;;;21.25;46.87;95385.13;4975271;28;1126;-51
2022/04/28 09:42:40;;;;;;;;;;;;;;;21.30;46.25;95384.44;4975306;28;1038;-51
2022/04/28 09:45:07;;;;;;;;;;;;;;;21.33;45.85;95378.56;4975296;28;971;-51
2022/04/28 09:47:34;;;;;;;;;;;;;;;21.13;46.90;95377.88;4974896;28;997;-51
2022/04/28 09:50:00;;;;;;;;;;;;;;;21.28;46.32;95372.13;4989988;28;1926;-50
2022/04/28 09:52:26;;;;;;;;;;;;;;;21.40;46.05;95378.50;4975209;28;1025;-50
2022/04/28 09:54:53;;;;;;;;;;;;;;;21.57;46.22;95371.47;4975110;28;1012;-51
2022/04/28 09:57:20;;;;;;;;;;;;;;;21.94;45.76;95376.94;4974895;28;1077;-51
2022/04/28 09:59:53;;;;;;;;;;;;;;;22.30;44.83;95372.56;4974778;28;1068;-51
2022/04/28 10:02:21;;;;;;;;;;;;;;;22.39;44.39;95371.19;4975004;28;1030;-51
2022/04/28 10:04:47;;;;;;;;;;;;;;;22.45;44.28;95368.59;4973494;28;1112;-51
2022/04/28 10:07:14;;;;;;;;;;;;;;;21.98;44.50;95375.41;4975075;28;995;-51
2022/04/28 10:09:48;;;;;;;;;;;;;;;21.72;44.84;95372.97;4974750;28;1911;-50
2022/04/28 10:12:17;;;;;;;;;;;;;;;21.53;45.07;95363.97;4974787;28;1025;-50
2022/04/28 10:14:43;;;;;;;;;;;;;;;21.68;45.78;95374.50;4989705;28;1066;-50
2022/04/28 10:17:19;;;;;;;;;;;;;;;21.91;44.97;95360.22;4973377;28;963;-50
2022/04/28 10:19:50;;;;;;;;;;;;;;;21.99;44.31;95360.75;4974716;28;1081;-50
2022/04/28 10:22:19;;;;;;;;;;;;;;;21.82;44.19;95362.41;4975006;28;999;-51
2022/04/28 10:33:03;;;;;;;;;;;;;;;21.58;44.62;95355.97;4974377;28;1009;-51
2022/04/28 10:35:33;;;;;;;;;;;;;;;21.58;44.57;95358.69;4974352;28;985;-51
2022/04/28 10:38:11;;;;;;;;;;;;;;;21.61;45.04;95348.19;4974488;28;937;-50
2022/04/28 10:40:43;;;;;;;;;;;;;;;21.63;45.78;95347.97;4974163;28;1223;-51
2022/04/28 10:43:20;;;;;;;;;;;;;;;21.81;44.42;95339.78;4974653;28;1077;-51
2022/04/28 10:45:49;;;;;;;;;;;;;;;21.82;44.37;95344.19;4974245;28;1044;-50
2022/04/28 10:48:26;;;;;;;;;;;;;;;21.70;45.11;95348.72;4974267;28;1000;-51
2022/04/28 10:51:10;;;;;;;;;;;;;;;21.64;45.95;95338.75;4974403;28;1915;-51
2022/04/28 10:53:55;;;;;;;;;;;;;;;21.90;44.65;95347.69;4974391;28;1078;-51
2022/04/28 10:56:21;;;;;;;;;;;;;;;21.88;44.97;95344.34;4974069;28;1029;-51
2022/04/28 10:58:47;;;;;;;;;;;;;;;21.67;45.20;95349.19;4974232;28;1100;-51
2022/04/28 11:01:31;;;;;;;;;;;;;;;21.69;45.17;95346.25;4974209;28;1048;-51
2022/04/28 11:04:01;;;;;;;;;;;;;;;21.60;45.63;95341.06;4974564;28;1014;-51
2022/04/28 11:06:31;;;;;;;;;;;;;;;21.63;45.39;95345.25;4973900;28;1104;-51
2022/04/28 11:08:59;;;;;;;;;;;;;;;21.77;44.67;95335.88;4974399;28;1914;-50
2022/04/28 11:11:28;;;;;;;;;;;;;;;21.75;44.75;95334.44;4973912;28;1038;-50
2022/04/28 11:13:57;;;;;;;;;;;;;;;21.69;44.61;95338.06;4974121;28;1053;-51
2022/04/28 11:16:24;;;;;;;;;;;;;;;21.61;45.31;95334.59;4974041;28;1040;-51
2022/04/28 11:18:50;;;;;;;;;;;;;;;21.74;45.27;95339.06;4974096;28;993;-51
2022/04/28 11:21:18;;;;;;;;;;;;;;;22.06;45.10;95338.06;4973932;28;1087;-51
2022/04/28 11:23:45;;;;;;;;;;;;;;;22.10;43.47;95337.38;4974444;28;1028;-51
2022/04/28 11:26:12;;;;;;;;;;;;;;;21.98;43.38;95353.63;4973803;28;1254;-51
2022/04/28 11:28:39;;;;;;;;;;;;;;;21.72;44.20;95335.75;4974217;28;1899;-51
2022/04/28 11:31:07;;;;;;;;;;;;;;;21.51;45.27;95347.03;4973758;28;1021;-51
2022/04/28 11:33:33;;;;;;;;;;;;;;;21.47;45.29;95338.50;4974241;28;937;-51
2022/04/28 11:35:59;;;;;;;;;;;;;;;21.43;45.57;95340.78;4973978;28;962;-51
2022/04/28 11:38:26;;;;;;;;;;;;;;;21.42;45.64;95341.88;4972919;28;1082;-52
2022/04/28 11:40:57;;;;;;;;;;;;;;;21.23;45.25;95332.03;4974570;28;1661;-50
2022/04/28 11:43:27;;;;;;;;;;;;;;;21.23;45.81;95335.56;4977568;28;1043;-49
2022/04/28 11:45:53;;;;;;;;;;;;;;;21.46;44.80;95334.13;4977144;28;1056;-51
2022/04/28 11:48:20;;;;;;;;;;;;;;;21.62;45.41;95340.84;4977084;28;988;-50
2022/04/28 11:50:47;;;;;;;;;;;;;;;21.89;44.43;95330.50;4976967;28;2021;-51
2022/04/28 11:53:13;;;;;;;;;;;;;;;21.92;45.04;95323.78;4977129;28;2136;-51
2022/04/28 11:55:40;;;;;;;;;;;;;;;21.89;46.21;95330.50;4977218;28;976;-50
2022/04/28 11:58:08;;;;;;;;;;;;;;;21.90;44.98;95328.63;4977093;28;1098;-50
2022/04/28 12:00:41;;;;;;;;;;;;;;;22.07;46.67;95318.78;4976685;28;1021;-50
2022/04/28 12:03:08;;;;;;;;;;;;;;;22.05;44.88;95325.50;4977007;28;1033;-51
2022/04/28 12:05:35;;;;;;;;;;;;;;;21.90;45.45;95320.47;4976988;28;1004;-49
2022/04/28 12:08:02;;;;;;;;;;;;;;;21.69;45.90;95325.28;4976917;28;1049;-50
2022/04/28 12:15:59;;;;;;;;;;;;;;;20.64;46.75;95306.97;4976610;28;1042;-49
2022/04/28 12:21:14;;;;;;;;;;;;;;;20.31;47.65;95301.75;4976532;28;993;-50
2022/04/28 12:23:41;;;;;;;;;;;;;;;20.31;48.17;95302.56;4976602;28;1017;-50
2022/04/28 12:26:09;;;;;;;;;;;;;;;20.33;48.29;95308.63;4976227;28;1171;-50
2022/04/28 12:28:35;;;;;;;;;;;;;;;20.23;49.99;95300.94;4976917;28;1095;-50
2022/04/28 12:31:02;;;;;;;;;;;;;;;20.05;49.81;95314.41;4976209;28;1045;-49
2022/04/28 12:33:29;;;;;;;;;;;;;;;19.85;50.69;95304.47;4976410;28;1076;-50
2022/04/28 12:36:01;;;;;;;;;;;;;;;19.67;51.72;95310.56;4976340;28;1108;-50
2022/04/28 12:38:28;;;;;;;;;;;;;;;19.44;54.30;95310.22;4976613;28;1034;-49
2022/04/28 12:40:55;;;;;;;;;;;;;;;19.33;56.83;95311.72;4976211;28;1084;-49
2022/04/28 12:43:42;;;;;;;;;;;;;;;19.28;56.01;95317.75;4976262;28;1030;-49
2022/04/28 12:46:09;;;;;;;;;;;;;;;19.14;57.64;95328.81;4976203;28;963;-49
2022/04/28 12:48:36;;;;;;;;;;;;;;;18.78;59.54;95328.19;4976274;28;966;-50
2022/04/28 12:51:07;;;;;;;;;;;;;;;18.63;60.48;95314.84;4976065;28;1037;-49
2022/04/28 12:53:34;;;;;;;;;;;;;;;18.64;59.71;95308.38;4975904;28;962;-50
2022/04/28 12:56:03;;;;;;;;;;;;;;;18.65;62.14;95303.81;4976045;28;1618;-50
2022/04/28 12:58:30;;;;;;;;;;;;;;;18.79;61.17;95318.19;4975945;28;1025;-50
2022/04/28 13:04:19;;;;;;;;;;;;;;;18.58;68.54;95313.81;4976231;28;645;-49
2022/04/28 13:06:46;;;;;;;;;;;;;;;18.40;69.58;95298.16;4975828;28;1096;-49
2022/04/28 13:09:15;;;;;;;;;;;;;;;18.33;66.42;95296.28;4976087;28;1918;-48
2022/04/28 13:11:41;;;;;;;;;;;;;;;18.40;68.78;95307.13;4975747;28;993;-49
2022/04/28 13:14:09;;;;;;;;;;;;;;;18.49;68.06;95311.28;4975709;28;1052;-49
2022/04/28 13:16:35;;;;;;;;;;;;;;;18.58;70.30;95308.41;4975798;28;1027;-49
2022/04/28 13:19:01;;;;;;;;;;;;;;;18.44;67.58;95313.78;4975452;28;919;-49
2022/04/28 13:21:28;;;;;;;;;;;;;;;18.42;67.88;95315.03;4975695;28;1021;-49
2022/04/28 13:23:54;;;;;;;;;;;;;;;18.29;68.60;95300.44;4975533;28;1088;-49
2022/04/28 13:26:21;;;;;;;;;;;;;;;18.16;70.93;95303.13;4975198;28;1242;-49
2022/04/28 13:28:49;;;;;;;;;;;;;;;18.09;72.67;95311.19;4975407;28;1996;-49
2022/04/28 13:31:15;;;;;;;;;;;;;;;18.22;72.39;95310.41;4975397;28;980;-49
2022/04/28 13:33:42;;;;;;;;;;;;;;;18.38;71.82;95302.94;4975780;28;957;-49
2022/04/28 13:36:08;;;;;;;;;;;;;;;18.46;73.08;95300.88;4975659;28;971;-49
2022/04/28 13:38:35;;;;;;;;;;;;;;;18.53;71.95;95301.72;4975268;28;990;-48
2022/04/28 13:41:02;;;;;;;;;;;;;;;18.62;70.73;95307.75;4975257;28;1080;-49